Aérodrome :
LOGIN :

S'inscrire | Disclaimer

   EN    FR    IT 

 










Légende :    VFR   VFR Marginal   IFR   IFR Intensif   IFR Très Intensif
Visi : 
Plafond : 
>= 8 km
>= 3000ft
5 à 8 km
1000 à 3000 ft
1500m à 5 km
500 à 1000 ft
800 à 1500m
200 à 500 ft
< 800m
< 200 ft
Symboles :   Orages  Brouillard  Fortes neiges  Fortes précipitations  Vent > 20 kt
SIGMETs :   Divers  Orages  Givrage  Turbulence  Onde Orograph.  Cendres Volcan.






- Altitude de l'aérodrome : 499 ft
- Code IATA : TLS


LFBO - Toulouse / Blagnac

DERNIER METAR :
  • 261500Z AUTO 30014KT 9999 FEW016/// SCT027/// BKN039/// ///TCU 07/06 Q1019 TEMPO 29022G32KT 4000 SHRA SCT015TCU FEW025CB

METARs EXPIRÉS :
  • 261430Z AUTO 31011KT 9999 FEW012/// BKN039/// BKN048/// ///CB 08/06 Q1018 TEMPO 29022G32KT 4000 SHRA
  • 261400Z AUTO 32016KT 9999 2300 RA FEW016/// SCT026/// BKN031/// ///TCU 07/05 Q1018 TEMPO 29022G32KT 4000 SHRA SCT015TCU FEW025CB
  • 261330Z AUTO 29014KT 260V330 9999 SCT033/// BKN041/// BKN049/// ///TCU 10/04 Q1018 TEMPO 29022G32KT 4000 SHRA SCT015TCU FEW025CB
  • 261300Z AUTO 28017KT 9999 FEW030/// BKN035/// BKN068/// ///TCU 11/06 Q1018 TEMPO 29022G32KT 4000 SHRA SCT015TCU FEW025CB
  • 261230Z AUTO 28016KT 9999 FEW033/// SCT066/// BKN086/// ///TCU 09/05 Q1018 TEMPO 29022G32KT 4000 SHRA SCT015TCU FEW025CB

TAF TAF LFBO
Valide du 26 à 12h jusqu'au 27 à 18h UTC


261100Z 2612/2718 29016KT 9999 SCT020TCU BKN045
TEMPO 2612/2618 29022G32KT 4000 SHRA SCT015TCU FEW025CB
BECMG 2618/2620 25005KT
PROB40 2619/2622 4000 -RA OVC013
BECMG 2622/2624 BKN040
BECMG 2710/2712 27020G36KT -RA SCT015TCU
TEMPO 2712/2718 27025G42KT 4000 RA BKN007
ATIS : +33 5 62 74 66 36



MET'MAP, la Météo Aéronautique d'un coup d'oeil ! - Copyright ORBIFLY Décembre 2007 - Disclaimer

ORBIFLY MET'MAP TEAM :

Programmation & Développement : Alexandra Zaïnal
Sur une idée originale de : Baudouin d'Aumeries
Assistance à la programmation : Marc-Olivier Méhu
Soutien technique & logistique : Manuel Goepfert

Contact : metmap@orbifly.com




SOURCES & CREDITS :

   NOAA